Time;durP1;ratioP1;P1;durP2;ratioP2;P2;SDS_P1;SDS_P2;PMS_P1;PMS_P2;Temp;Humidity;BMP_temperature;BMP_pressure;BME280_temperature;BME280_humidity;BME280_pressure;Samples;Min_cycle;Max_cycle;Signal;HPM_P1;HPM_P2
2022/03/25 00:02:06;;;;;;;82.03;39.08;;;;;;;9.84;45.04;102394.91;5075790;28;20067;-64
2022/03/25 00:04:33;;;;;;;84.72;39.20;;;;;;;9.79;45.23;102391.72;5089864;28;20044;-64
2022/03/25 00:07:00;;;;;;;81.85;38.10;;;;;;;9.68;46.07;102391.59;5086361;28;20386;-64
2022/03/25 00:09:27;;;;;;;79.47;37.92;;;;;;;9.71;46.43;102386.94;5088156;28;20455;-64
2022/03/25 00:11:53;;;;;;;77.38;37.92;;;;;;;9.60;46.39;102385.06;5087923;28;20048;-64
2022/03/25 00:14:20;;;;;;;88.65;38.38;;;;;;;9.39;46.87;102383.91;5075480;28;20143;-64
2022/03/25 00:16:47;;;;;;;85.80;38.75;;;;;;;9.37;47.09;102380.53;5074466;28;20052;-64
2022/03/25 00:19:14;;;;;;;91.30;38.75;;;;;;;9.30;47.20;102384.56;5074103;28;20088;-64
2022/03/25 00:21:41;;;;;;;88.50;38.58;;;;;;;9.28;47.82;102386.44;5075489;28;20488;-64
2022/03/25 00:24:08;;;;;;;78.90;37.92;;;;;;;9.23;48.24;102386.75;5074342;28;20115;-64
2022/03/25 00:26:35;;;;;;;82.40;38.20;;;;;;;9.30;48.30;102390.69;5073936;28;20444;-64
2022/03/25 00:29:02;;;;;;;82.93;39.30;;;;;;;9.04;48.41;102384.53;5075701;28;20068;-64
2022/03/25 00:31:28;;;;;;;90.28;39.30;;;;;;;8.96;48.38;102390.31;5073230;28;20070;-64
2022/03/25 00:33:55;;;;;;;84.65;39.35;;;;;;;8.75;48.69;102384.69;5073674;28;20135;-64
2022/03/25 00:36:23;;;;;;;81.72;38.85;;;;;;;8.77;48.80;102396.00;5075060;28;20086;-64
2022/03/25 00:38:50;;;;;;;78.40;38.60;;;;;;;8.77;49.14;102389.88;5041192;28;20170;-64
2022/03/25 00:41:16;;;;;;;87.43;38.70;;;;;;;8.68;49.01;102395.75;5057319;28;20041;-64
2022/03/25 00:43:45;;;;;;;87.55;38.30;;;;;;;8.58;49.51;102388.44;5074149;28;20094;-64
2022/03/25 00:46:15;;;;;;;81.45;39.10;;;;;;;8.64;50.13;102389.81;5033426;28;20056;-64
2022/03/25 00:48:44;;;;;;;87.53;38.28;;;;;;;8.64;49.55;102390.69;5033642;28;20095;-64
2022/03/25 00:51:11;;;;;;;79.32;38.58;;;;;;;8.60;50.24;102385.69;5037455;28;20037;-64
2022/03/25 00:53:38;;;;;;;89.70;39.15;;;;;;;8.44;50.21;102384.06;5086941;28;20079;-64
2022/03/25 00:56:05;;;;;;;88.18;37.17;;;;;;;8.54;50.53;102375.50;5054455;28;20045;-64
2022/03/25 00:58:33;;;;;;;91.43;40.05;;;;;;;8.44;50.55;102380.53;5054628;28;20405;-64
2022/03/25 01:00:59;;;;;;;81.82;38.30;;;;;;;8.29;49.91;102379.72;5053102;28;20068;-64
2022/03/25 01:03:30;;;;;;;93.28;39.47;;;;;;;8.27;50.16;102376.31;5067063;28;20129;-64
2022/03/25 01:05:57;;;;;;;89.28;39.30;;;;;;;8.22;51.43;102381.94;5072840;28;20059;-64
2022/03/25 01:08:24;;;;;;;82.18;37.92;;;;;;;8.24;50.89;102381.81;5073445;28;20056;-64
2022/03/25 01:10:52;;;;;;;88.03;37.40;;;;;;;8.29;50.68;102382.34;5074476;28;20041;-64
2022/03/25 01:13:21;;;;;;;86.85;38.22;;;;;;;8.21;50.15;102374.94;5073677;28;20052;-64
2022/03/25 01:15:47;;;;;;;90.93;38.85;;;;;;;8.30;51.02;102381.44;5073154;28;20043;-64
2022/03/25 01:18:14;;;;;;;87.28;39.38;;;;;;;8.45;51.98;102375.16;5073045;28;20139;-64
2022/03/25 01:20:42;;;;;;;83.47;37.50;;;;;;;8.34;52.13;102382.91;5074167;28;20123;-64
2022/03/25 01:23:09;;;;;;;92.25;39.63;;;;;;;8.25;51.47;102380.88;5073022;28;20039;-64
2022/03/25 01:25:36;;;;;;;96.90;39.65;;;;;;;8.20;51.46;102375.84;5073027;28;20043;-64
2022/03/25 01:28:02;;;;;;;89.22;40.13;;;;;;;8.26;51.10;102379.94;5072837;28;20044;-65
2022/03/25 01:30:31;;;;;;;87.30;37.88;;;;;;;8.30;51.09;102380.59;5073905;28;20050;-64
2022/03/25 01:32:59;;;;;;;91.55;37.55;;;;;;;8.19;50.83;102382.13;5056552;28;20036;-65
2022/03/25 01:35:25;;;;;;;84.82;37.72;;;;;;;8.20;51.31;102375.84;5052811;28;20051;-65
2022/03/25 01:37:52;;;;;;;93.90;39.47;;;;;;;8.18;50.81;102382.22;5054098;28;20045;-64
2022/03/25 01:40:19;;;;;;;82.72;37.53;;;;;;;8.13;51.63;102374.59;5054207;28;20099;-64
2022/03/25 01:42:47;;;;;;;95.95;39.20;;;;;;;8.30;51.90;102368.19;5035892;28;20032;-64
2022/03/25 01:45:26;;;;;;;86.65;38.50;;;;;;;8.33;51.62;102364.50;5052525;28;20405;-64
2022/03/25 01:47:54;;;;;;;89.07;36.95;;;;;;;8.35;51.49;102371.41;5053636;28;20055;-64
2022/03/25 01:50:21;;;;;;;87.75;38.42;;;;;;;8.39;50.87;102366.75;5052609;28;20083;-64
2022/03/25 01:52:50;;;;;;;89.32;38.33;;;;;;;8.49;51.26;102365.22;5053949;28;20052;-63
2022/03/25 01:55:21;;;;;;;94.78;38.63;;;;;;;8.49;51.31;102362.59;5052474;28;20497;-63
2022/03/25 01:57:50;;;;;;;86.03;39.03;;;;;;;8.53;51.92;102368.53;5053622;28;20124;-64
2022/03/25 02:00:19;;;;;;;89.50;37.08;;;;;;;8.55;51.63;102369.25;5053606;28;20440;-63
2022/03/25 02:02:49;;;;;;;89.88;37.55;;;;;;;8.59;51.28;102373.44;5062002;28;20051;-64
2022/03/25 02:05:17;;;;;;;81.95;38.65;;;;;;;8.51;51.72;102370.41;5071552;28;20106;-64
2022/03/25 02:07:45;;;;;;;90.47;39.70;;;;;;;8.50;52.27;102372.22;5073345;28;20048;-64
2022/03/25 02:10:13;;;;;;;82.40;37.97;;;;;;;8.67;51.85;102368.47;5049690;28;20048;-63
2022/03/25 02:12:42;;;;;;;93.97;38.85;;;;;;;8.45;52.71;102371.69;5073577;28;20074;-66
2022/03/25 02:15:09;;;;;;;85.15;39.35;;;;;;;8.50;52.40;102364.28;5079182;28;20037;-63
2022/03/25 02:17:37;;;;;;;84.00;38.15;;;;;;;8.44;52.55;102370.84;5084922;28;20045;-64
2022/03/25 02:20:08;;;;;;;91.07;37.25;;;;;;;8.33;53.11;102367.16;5071964;28;20051;-64
2022/03/25 02:22:37;;;;;;;94.20;38.10;;;;;;;8.23;52.71;102365.09;5073056;28;20485;-64
2022/03/25 02:25:08;;;;;;;82.72;39.08;;;;;;;8.19;52.81;102376.81;5072192;28;20055;-64
2022/03/25 02:27:37;;;;;;;99.85;40.22;;;;;;;8.13;53.83;102371.06;5071981;28;20044;-64
2022/03/25 02:30:07;;;;;;;83.30;38.38;;;;;;;7.91;53.83;102372.44;5071968;28;20032;-64
2022/03/25 02:32:35;;;;;;;102.57;39.47;;;;;;;7.92;54.41;102378.59;5061257;28;20044;-64
2022/03/25 02:35:03;;;;;;;91.72;38.15;;;;;;;7.88;54.62;102373.50;5069456;28;20595;-63
2022/03/25 02:37:30;;;;;;;85.68;38.15;;;;;;;8.00;54.40;102371.84;5072874;28;20064;-63
2022/03/25 02:39:56;;;;;;;90.05;36.95;;;;;;;8.01;53.31;102373.56;5071663;28;20054;-63
2022/03/25 02:42:23;;;;;;;80.75;37.22;;;;;;;7.98;53.09;102370.25;5060870;28;20048;-63
2022/03/25 02:44:51;;;;;;;90.72;38.78;;;;;;;8.15;51.78;102374.47;5068342;28;20048;-63
2022/03/25 02:47:18;;;;;;;82.32;37.78;;;;;;;8.20;51.27;102375.84;5035185;28;20405;-63
2022/03/25 02:49:46;;;;;;;91.28;36.83;;;;;;;8.19;51.27;102376.81;5052698;28;20055;-63
2022/03/25 02:52:13;;;;;;;87.10;38.40;;;;;;;8.23;51.56;102380.97;5084837;28;20116;-63
2022/03/25 02:54:40;;;;;;;92.35;38.15;;;;;;;8.30;50.85;102377.94;5085155;28;20144;-64
2022/03/25 02:57:07;;;;;;;98.15;40.78;;;;;;;8.24;50.85;102377.38;5048416;28;20497;-64
2022/03/25 02:59:33;;;;;;;105.60;38.55;;;;;;;8.20;51.09;102375.84;5051474;28;20097;-64
2022/03/25 03:02:00;;;;;;;86.20;39.15;;;;;;;8.34;52.50;102374.97;5054445;28;20053;-64
2022/03/25 03:04:27;;;;;;;92.70;38.28;;;;;;;8.36;53.10;102383.66;5071143;28;20045;-64
2022/03/25 03:06:54;;;;;;;85.20;38.25;;;;;;;8.25;53.64;102378.22;5053171;28;20041;-64
2022/03/25 03:09:21;;;;;;;93.78;39.22;;;;;;;8.13;53.58;102381.66;5072623;28;20090;-64
2022/03/25 03:11:47;;;;;;;99.82;39.00;;;;;;;8.11;53.34;102380.91;5071567;28;20048;-64
2022/03/25 03:14:14;;;;;;;97.07;41.72;;;;;;;8.14;52.58;102378.91;5071337;28;20098;-64
2022/03/25 03:16:41;;;;;;;91.95;38.17;;;;;;;8.06;52.98;102384.69;5071411;28;20566;-64
2022/03/25 03:19:08;;;;;;;88.53;40.50;;;;;;;7.97;53.55;102385.28;5054638;28;20045;-65
2022/03/25 03:21:35;;;;;;;92.22;40.15;;;;;;;8.07;52.87;102385.53;5063948;28;20033;-64
2022/03/25 03:24:02;;;;;;;97.20;39.55;;;;;;;7.93;53.53;102386.44;5084377;28;20049;-64
2022/03/25 03:26:29;;;;;;;88.65;38.47;;;;;;;7.78;54.20;102390.84;5052208;28;20497;-64
2022/03/25 03:28:56;;;;;;;91.45;40.38;;;;;;;7.62;53.89;102385.69;5051518;28;20103;-64
2022/03/25 03:31:22;;;;;;;102.03;40.38;;;;;;;7.59;54.64;102390.31;5052314;28;20045;-64
2022/03/25 03:33:49;;;;;;;93.13;39.70;;;;;;;7.57;54.25;102395.69;5067656;28;20056;-64
2022/03/25 03:36:16;;;;;;;95.90;41.90;;;;;;;7.50;53.87;102397.84;5071139;28;20083;-64
2022/03/25 03:38:43;;;;;;;86.63;38.92;;;;;;;7.52;54.87;102389.81;5071024;28;20079;-66
2022/03/25 03:41:10;;;;;;;93.55;39.72;;;;;;;7.41;54.04;102387.00;5057930;28;20045;-64
2022/03/25 03:43:36;;;;;;;94.07;40.47;;;;;;;7.40;54.05;102387.94;5067558;28;20045;-65
2022/03/25 03:46:03;;;;;;;90.97;38.88;;;;;;;7.46;53.52;102398.13;5050754;28;20404;-65
2022/03/25 03:48:31;;;;;;;94.53;40.65;;;;;;;7.49;53.30;102390.88;5052089;28;20040;-64
2022/03/25 03:50:59;;;;;;;94.45;40.28;;;;;;;7.54;53.52;102393.22;5056213;28;20045;-64
2022/03/25 03:53:26;;;;;;;96.03;40.20;;;;;;;7.57;54.04;102390.41;5054734;28;20044;-64
2022/03/25 03:55:52;;;;;;;95.15;41.20;;;;;;;7.58;54.04;102392.09;5055823;28;20049;-64
2022/03/25 03:58:40;;;;;;;90.10;39.65;;;;;;;7.55;53.66;102397.56;5040962;28;20049;-65
2022/03/25 04:01:07;;;;;;;97.43;39.40;;;;;;;7.55;53.60;102391.41;5038061;28;20080;-65
2022/03/25 04:03:34;;;;;;;95.90;40.42;;;;;;;7.39;53.87;102391.53;5070686;28;20044;-64
2022/03/25 04:06:00;;;;;;;97.60;40.85;;;;;;;7.46;54.15;102390.22;5065998;28;20535;-64
2022/03/25 04:08:27;;;;;;;93.00;40.97;;;;;;;7.50;55.15;102391.72;5073716;28;20040;-64
2022/03/25 04:10:54;;;;;;;108.38;42.75;;;;;;;7.49;55.09;102382.09;5072855;28;20045;-64
2022/03/25 04:13:20;;;;;;;103.75;41.97;;;;;;;7.47;54.73;102389.25;5055533;28;20586;-64
2022/03/25 04:15:47;;;;;;;108.97;42.45;;;;;;;7.43;54.70;102393.88;5071549;28;20057;-64
2022/03/25 04:18:14;;;;;;;97.65;42.10;;;;;;;7.44;55.19;102395.59;5055148;28;20056;-65
2022/03/25 04:20:40;;;;;;;97.88;41.83;;;;;;;7.41;55.65;102387.84;5054368;28;20079;-64
2022/03/25 04:23:07;;;;;;;95.45;40.35;;;;;;;7.44;56.26;102394.72;5037712;28;20049;-64
2022/03/25 04:25:34;;;;;;;109.68;43.25;;;;;;;7.39;55.86;102394.16;5087422;28;20124;-64
2022/03/25 04:28:01;;;;;;;105.75;42.30;;;;;;;7.42;55.85;102392.19;5059023;28;20053;-64
2022/03/25 04:30:31;;;;;;;98.15;41.67;;;;;;;7.27;56.36;102396.59;5059298;28;20044;-64
2022/03/25 04:32:59;;;;;;;99.90;41.65;;;;;;;7.19;56.67;102392.72;5065585;28;20086;-64
2022/03/25 04:35:27;;;;;;;97.15;40.78;;;;;;;7.24;56.82;102394.16;5055528;28;20404;-64
2022/03/25 04:37:56;;;;;;;104.53;42.90;;;;;;;7.18;57.45;102397.13;5073915;28;20094;-64
2022/03/25 04:40:25;;;;;;;96.53;40.75;;;;;;;7.05;56.83;102397.00;5056874;28;20047;-64
2022/03/25 04:42:54;;;;;;;100.03;42.60;;;;;;;7.15;57.08;102397.34;5053648;28;20079;-65
2022/03/25 04:45:21;;;;;;;100.68;44.05;;;;;;;7.05;58.00;102396.19;5070502;28;20086;-64
2022/03/25 04:47:48;;;;;;;91.85;40.80;;;;;;;6.97;57.10;102399.28;5053656;28;20072;-65
2022/03/25 04:50:15;;;;;;;97.07;43.45;;;;;;;7.03;57.80;102398.91;5053745;28;20508;-64
2022/03/25 04:52:43;;;;;;;102.30;43.60;;;;;;;6.76;57.38;102397.88;5037677;28;20048;-64
2022/03/25 04:55:14;;;;;;;107.97;41.90;;;;;;;6.72;57.69;102403.31;5053579;28;20139;-64
2022/03/25 04:57:41;;;;;;;98.65;42.17;;;;;;;6.70;58.17;102393.81;5070740;28;20098;-64
2022/03/25 05:00:09;;;;;;;97.65;41.92;;;;;;;6.59;58.69;102404.13;5053614;28;20049;-64
2022/03/25 05:02:36;;;;;;;105.38;42.22;;;;;;;6.45;58.41;102408.38;5094942;28;20087;-63
2022/03/25 05:05:04;;;;;;;100.57;42.55;;;;;;;6.37;59.04;102407.97;5074587;28;20102;-64
2022/03/25 05:07:31;;;;;;;98.68;42.80;;;;;;;6.46;59.99;102407.44;5071306;28;20450;-63
2022/03/25 05:10:00;;;;;;;109.95;45.78;;;;;;;6.48;60.13;102408.22;5073362;28;20128;-63
2022/03/25 05:12:27;;;;;;;99.15;42.75;;;;;;;6.43;59.93;102410.25;5061332;28;20558;-63
2022/03/25 05:14:54;;;;;;;96.60;42.92;;;;;;;6.44;59.90;102413.72;5053160;28;20041;-64
2022/03/25 05:17:21;;;;;;;109.55;44.75;;;;;;;6.52;59.61;102407.09;5054639;28;20056;-67
2022/03/25 05:19:48;;;;;;;96.35;42.15;;;;;;;6.42;60.01;102411.22;5053144;28;20045;-64
2022/03/25 05:22:14;;;;;;;105.43;42.03;;;;;;;6.36;60.46;102416.81;5086494;28;20064;-64
2022/03/25 05:24:41;;;;;;;115.80;43.63;;;;;;;6.31;60.51;102419.72;5052625;28;20041;-63
2022/03/25 05:27:08;;;;;;;110.28;44.65;;;;;;;6.32;61.42;102418.75;5054277;28;20045;-63
2022/03/25 05:29:35;;;;;;;108.18;41.60;;;;;;;6.13;61.16;102418.06;5053009;28;20043;-63
2022/03/25 05:32:02;;;;;;;103.05;43.03;;;;;;;6.21;61.71;102421.16;5057619;28;20489;-63
2022/03/25 05:34:28;;;;;;;104.82;42.33;;;;;;;6.15;61.59;102419.69;5072278;28;20040;-64
2022/03/25 05:36:55;;;;;;;96.03;41.72;;;;;;;6.04;62.09;102422.09;5070839;28;20094;-63
2022/03/25 05:39:22;;;;;;;99.85;41.97;;;;;;;5.97;62.76;102425.97;5052550;28;20041;-64
2022/03/25 05:41:48;;;;;;;103.88;42.83;;;;;;;6.09;62.14;102427.94;5086348;28;20067;-63
2022/03/25 05:44:15;;;;;;;103.80;43.22;;;;;;;6.08;63.54;102435.94;5052270;28;20041;-63
2022/03/25 05:46:43;;;;;;;104.50;42.38;;;;;;;5.98;62.72;102429.44;5053685;28;20045;-63
2022/03/25 05:49:09;;;;;;;96.35;43.70;;;;;;;6.03;63.43;102430.91;5052133;28;20493;-64
2022/03/25 05:51:37;;;;;;;115.40;43.95;;;;;;;5.92;64.08;102441.97;5053926;28;20098;-64
2022/03/25 05:54:05;;;;;;;101.38;42.83;;;;;;;5.98;63.79;102437.34;5053561;28;20044;-64
2022/03/25 05:56:32;;;;;;;103.88;43.53;;;;;;;6.13;64.69;102444.41;5053347;28;20041;-64
2022/03/25 05:58:59;;;;;;;114.85;43.55;;;;;;;6.14;64.64;102440.88;5068764;28;20044;-64
2022/03/25 06:01:25;;;;;;;99.38;42.13;;;;;;;6.20;64.26;102440.50;5052005;28;20132;-64
2022/03/25 06:03:52;;;;;;;110.43;43.58;;;;;;;6.22;64.65;102448.34;5097833;28;20040;-64
2022/03/25 06:06:19;;;;;;;113.57;44.15;;;;;;;6.27;65.08;102449.78;5027785;28;20049;-64
2022/03/25 06:08:48;;;;;;;104.97;44.22;;;;;;;6.27;64.34;102456.84;5033142;28;20042;-64
2022/03/25 06:11:16;;;;;;;95.68;43.35;;;;;;;6.41;64.18;102451.69;5015334;28;20111;-64
2022/03/25 06:13:43;;;;;;;138.70;46.05;;;;;;;6.37;65.13;102450.16;5033771;28;20478;-64
2022/03/25 06:16:10;;;;;;;123.90;46.20;;;;;;;6.43;65.07;102448.97;5033283;28;20045;-64
2022/03/25 06:18:36;;;;;;;114.45;44.20;;;;;;;6.50;65.41;102450.31;5033095;28;20452;-64
2022/03/25 06:21:04;;;;;;;118.32;49.00;;;;;;;6.41;64.88;102462.22;5032033;28;20049;-64
2022/03/25 06:23:30;;;;;;;119.28;44.85;;;;;;;6.39;65.35;102458.81;5033361;28;20042;-64
2022/03/25 06:25:57;;;;;;;111.43;46.50;;;;;;;6.60;64.04;102448.00;5031974;28;20080;-64
2022/03/25 06:28:24;;;;;;;114.65;46.28;;;;;;;6.67;63.60;102455.47;5015661;28;20147;-64
2022/03/25 06:30:50;;;;;;;131.88;46.58;;;;;;;6.63;62.98;102447.84;5065130;28;20441;-64
2022/03/25 06:33:17;;;;;;;115.38;46.15;;;;;;;6.67;62.92;102452.00;5059406;28;20449;-64
2022/03/25 06:35:44;;;;;;;106.40;46.20;;;;;;;6.80;62.55;102458.25;5068191;28;20123;-64
2022/03/25 06:38:11;;;;;;;106.53;45.90;;;;;;;6.76;63.13;102454.09;5051539;28;20091;-64
2022/03/25 06:40:37;;;;;;;108.53;45.65;;;;;;;6.87;62.26;102467.53;5085018;28;20397;-64
2022/03/25 06:43:05;;;;;;;108.95;47.08;;;;;;;7.01;61.54;102465.91;5084694;28;20056;-64
2022/03/25 06:45:32;;;;;;;104.10;46.35;;;;;;;7.06;61.52;102451.50;5053291;28;20130;-64
2022/03/25 06:47:59;;;;;;;110.80;45.40;;;;;;;7.08;61.00;102456.69;5055424;28;20161;-63
2022/03/25 06:50:26;;;;;;;109.20;45.00;;;;;;;7.12;61.31;102458.22;5056427;28;20067;-63
2022/03/25 06:52:53;;;;;;;107.25;46.50;;;;;;;7.40;59.57;102459.22;5067550;28;20402;-63
2022/03/25 06:55:22;;;;;;;111.35;44.55;;;;;;;7.35;60.03;102471.84;5084058;28;20052;-63
2022/03/25 06:57:50;;;;;;;107.70;45.85;;;;;;;7.42;61.18;102467.91;5052437;28;20044;-65
2022/03/25 07:00:20;;;;;;;108.22;44.97;;;;;;;7.53;60.53;102457.56;5083774;28;20094;-65
2022/03/25 07:02:47;;;;;;;120.88;45.88;;;;;;;7.42;60.51;102468.75;5061600;28;20048;-65
2022/03/25 07:05:15;;;;;;;98.78;45.90;;;;;;;7.60;60.34;102464.16;5072635;28;20052;-64
2022/03/25 07:07:43;;;;;;;100.22;44.85;;;;;;;7.72;59.33;102469.66;5069370;28;20041;-65
2022/03/25 07:10:12;;;;;;;105.60;43.92;;;;;;;7.82;58.98;102465.50;5072449;28;20040;-64
2022/03/25 07:12:41;;;;;;;92.47;43.80;;;;;;;7.83;59.37;102473.31;5055069;28;20048;-65
2022/03/25 07:15:09;;;;;;;93.10;43.45;;;;;;;7.88;59.58;102478.34;5088243;28;20566;-64
2022/03/25 07:17:37;;;;;;;96.32;42.97;;;;;;;7.85;56.32;102471.44;5071544;28;20052;-64
2022/03/25 07:20:06;;;;;;;100.63;43.28;;;;;;;8.10;57.18;102483.16;5070832;28;20417;-63
2022/03/25 07:22:34;;;;;;;115.10;44.70;;;;;;;8.22;58.25;102476.22;5072696;28;20485;-64
2022/03/25 07:25:00;;;;;;;94.63;40.35;;;;;;;8.23;55.21;102476.13;5041800;28;20106;-64
2022/03/25 07:27:27;;;;;;;97.25;41.42;;;;;;;8.35;55.11;102482.47;5074853;28;20041;-64
2022/03/25 07:29:54;;;;;;;88.47;41.80;;;;;;;8.48;54.86;102485.22;5045714;28;20050;-64
2022/03/25 07:32:21;;;;;;;100.32;42.45;;;;;;;8.51;54.64;102479.72;5047822;28;20044;-64
2022/03/25 07:34:47;;;;;;;101.78;41.90;;;;;;;8.55;54.48;102486.53;5066923;28;20037;-63
2022/03/25 07:37:14;;;;;;;90.15;43.70;;;;;;;8.53;55.93;102485.78;5056468;28;20524;-63
2022/03/25 07:39:42;;;;;;;93.47;44.40;;;;;;;8.52;56.17;102492.00;5054837;28;20091;-64
2022/03/25 07:42:08;;;;;;;87.18;42.72;;;;;;;8.61;56.39;102491.41;5054995;28;20070;-64
2022/03/25 07:44:37;;;;;;;88.13;43.75;;;;;;;8.65;57.22;102487.59;5055772;28;20047;-63
2022/03/25 07:47:04;;;;;;;105.00;43.80;;;;;;;8.95;56.16;102497.16;5054618;28;20094;-63
2022/03/25 07:49:34;;;;;;;86.70;42.13;;;;;;;9.05;55.38;102497.41;5057277;28;20113;-64
2022/03/25 07:52:02;;;;;;;89.10;42.95;;;;;;;9.17;55.44;102499.25;5068475;28;20122;-64
2022/03/25 07:54:30;;;;;;;92.00;43.10;;;;;;;9.25;55.16;102505.84;5075795;28;20032;-64
2022/03/25 07:56:58;;;;;;;100.20;44.35;;;;;;;9.20;55.22;102509.66;5108662;28;20086;-64
2022/03/25 07:59:26;;;;;;;94.80;42.40;;;;;;;9.35;54.73;102509.53;5074668;28;20049;-63
2022/03/25 08:01:53;;;;;;;92.47;41.42;;;;;;;9.31;53.73;102513.34;5075250;28;20055;-64
2022/03/25 08:04:21;;;;;;;102.40;43.70;;;;;;;9.40;54.00;102504.78;5075753;28;20055;-64
2022/03/25 08:06:48;;;;;;;94.18;43.10;;;;;;;9.59;53.00;102509.72;5072536;28;20040;-64
2022/03/25 08:09:14;;;;;;;95.18;43.55;;;;;;;9.76;53.07;102513.84;5075880;28;20106;-63
2022/03/25 08:11:42;;;;;;;92.18;42.72;;;;;;;9.97;52.16;102515.03;5061118;28;20370;-63
2022/03/25 08:14:08;;;;;;;90.72;42.20;;;;;;;10.02;52.23;102519.16;5054931;28;20064;-62
2022/03/25 08:16:35;;;;;;;93.18;42.53;;;;;;;10.16;51.23;102517.22;5054860;28;20095;-63
2022/03/25 08:19:02;;;;;;;90.80;43.17;;;;;;;10.43;50.94;102521.56;5054743;28;20049;-62
2022/03/25 08:21:29;;;;;;;98.53;44.05;;;;;;;10.75;51.37;102518.38;5053055;28;20082;-62
2022/03/25 08:29:28;;;;;;;105.10;47.45;;;;;;;11.06;50.78;102526.75;5051189;28;20513;-63
2022/03/25 08:31:55;;;;;;;102.10;46.72;;;;;;;11.24;50.02;102524.53;5052007;28;20041;-62
2022/03/25 08:34:22;;;;;;;109.07;48.55;;;;;;;11.40;49.82;102526.88;5049846;28;20508;-62
2022/03/25 08:36:50;;;;;;;99.20;46.08;;;;;;;11.54;49.72;102521.38;5046765;28;20045;-62
2022/03/25 08:39:17;;;;;;;117.32;47.97;;;;;;;11.38;49.54;102536.78;5068395;28;20049;-62
2022/03/25 08:41:44;;;;;;;113.68;50.22;;;;;;;11.48;50.02;102530.66;5056092;28;20057;-62
2022/03/25 08:44:11;;;;;;;113.93;49.60;;;;;;;11.80;48.80;102531.81;5084114;28;20567;-62
2022/03/25 08:46:38;;;;;;;120.72;50.47;;;;;;;11.86;49.03;102532.19;5034515;28;20036;-63
2022/03/25 08:49:10;;;;;;;116.85;50.83;;;;;;;11.98;49.02;102533.06;5031875;28;20049;-62
2022/03/25 08:51:37;;;;;;;115.25;50.90;;;;;;;12.11;48.33;102524.97;5050356;28;20073;-62
2022/03/25 08:54:04;;;;;;;109.32;50.65;;;;;;;12.06;47.93;102536.00;5053792;28;20049;-62
2022/03/25 08:56:30;;;;;;;115.38;49.08;;;;;;;12.32;46.32;102542.91;5057802;28;20508;-62
2022/03/25 08:58:59;;;;;;;103.05;46.72;;;;;;;12.40;46.14;102535.97;5055272;28;20118;-65
2022/03/25 09:01:26;;;;;;;100.00;44.78;;;;;;;12.67;45.19;102548.06;5051384;28;20477;-64
2022/03/25 09:03:53;;;;;;;92.55;44.47;;;;;;;12.76;44.39;102535.81;5036404;28;20083;-64
2022/03/25 09:06:20;;;;;;;94.57;43.17;;;;;;;12.83;43.56;102537.84;5051447;28;20079;-65
2022/03/25 09:08:47;;;;;;;98.50;45.55;;;;;;;13.11;44.11;102543.56;5055567;28;20485;-64
2022/03/25 09:11:14;;;;;;;101.28;44.28;;;;;;;13.32;43.24;102540.16;5051649;28;20099;-65
2022/03/25 09:13:41;;;;;;;108.63;45.78;;;;;;;13.47;42.96;102543.34;5053671;28;20457;-64
2022/03/25 09:16:09;;;;;;;107.32;47.90;;;;;;;13.89;42.68;102543.31;5058537;28;20057;-65
2022/03/25 09:18:35;;;;;;;102.68;47.53;;;;;;;14.48;41.42;102545.28;5028357;28;20045;-64
2022/03/25 09:21:02;;;;;;;110.57;48.80;;;;;;;14.73;39.88;102548.44;5059647;28;20046;-63
2022/03/25 09:23:29;;;;;;;97.80;43.00;;;;;;;15.22;37.66;102545.84;5037439;28;20103;-63
2022/03/25 09:25:57;;;;;;;94.38;45.80;;;;;;;15.93;35.97;102546.34;5076637;28;20397;-63
2022/03/25 09:28:24;;;;;;;96.13;43.88;;;;;;;16.66;34.44;102544.72;5052165;28;20044;-63
2022/03/25 09:30:51;;;;;;;94.68;44.95;;;;;;;17.83;32.67;102543.75;5053187;28;20559;-63
2022/03/25 09:33:18;;;;;;;97.25;44.97;;;;;;;18.55;31.31;102540.75;5048934;28;20492;-63
2022/03/25 09:35:45;;;;;;;90.93;46.28;;;;;;;18.85;30.70;102550.13;5049518;28;20040;-63
2022/03/25 09:38:13;;;;;;;122.40;55.20;;;;;;;20.06;29.08;102546.69;5033554;28;20037;-63
2022/03/25 09:40:41;;;;;;;99.63;47.45;;;;;;;20.42;28.01;102546.22;5051696;28;20103;-61
2022/03/25 09:43:08;;;;;;;105.28;47.70;;;;;;;21.11;27.63;102547.38;5016797;28;20072;-64
2022/03/25 09:45:36;;;;;;;100.45;45.28;;;;;;;21.69;26.55;102548.56;5048941;28;20140;-62
2022/03/25 09:48:04;;;;;;;100.88;45.15;;;;;;;21.71;27.08;102543.00;5053285;28;20041;-62
2022/03/25 09:50:33;;;;;;;93.10;43.78;;;;;;;22.47;26.43;102548.22;5065119;28;20516;-62
2022/03/25 09:53:00;;;;;;;86.53;44.63;;;;;;;22.61;25.06;102545.47;5073254;28;20441;-62
2022/03/25 09:55:40;;;;;;;90.75;46.08;;;;;;;22.69;24.86;102539.09;5073214;28;20492;-62
2022/03/25 09:58:07;;;;;;;92.85;43.80;;;;;;;22.70;24.75;102534.53;5073769;28;20045;-63
2022/03/25 10:00:35;;;;;;;88.93;43.05;;;;;;;22.08;25.19;102527.72;5073628;28;20125;-63
2022/03/25 10:03:03;;;;;;;79.22;42.15;;;;;;;22.68;25.01;102526.59;5072935;28;20062;-63
2022/03/25 10:05:30;;;;;;;85.80;41.50;;;;;;;23.19;24.79;102537.34;5071798;28;20493;-63
2022/03/25 10:07:57;;;;;;;69.63;36.25;;;;;;;23.84;23.30;102542.63;5071334;28;20131;-63
2022/03/25 10:10:27;;;;;;;52.95;28.38;;;;;;;24.92;21.24;102539.31;5072160;28;20056;-62
2022/03/25 10:13:00;;;;;;;54.78;28.60;;;;;;;24.96;21.48;102542.44;5071986;28;20047;-62
2022/03/25 10:15:30;;;;;;;58.65;26.85;;;;;;;25.42;21.09;102542.50;5073363;28;20059;-62
2022/03/25 10:18:11;;;;;;;47.78;25.92;;;;;;;25.61;20.22;102542.69;5073136;28;20055;-63
2022/03/25 10:20:40;;;;;;;66.25;25.27;;;;;;;25.84;20.06;102537.63;5070651;28;20045;-63
2022/03/25 10:23:22;;;;;;;53.53;25.13;;;;;;;26.58;19.60;102537.38;5072600;28;20455;-63
2022/03/25 10:25:53;;;;;;;55.65;24.15;;;;;;;27.32;18.45;102548.63;5073194;28;20044;-63
2022/03/25 10:28:27;;;;;;;53.75;24.50;;;;;;;27.66;18.36;102549.16;5071811;28;20055;-62
2022/03/25 10:30:57;;;;;;;48.53;25.48;;;;;;;26.92;18.22;102544.28;5061607;28;20101;-62
2022/03/25 10:33:46;;;;;;;48.72;25.05;;;;;;;26.96;18.59;102541.94;5066873;28;20417;-63
2022/03/25 10:36:15;;;;;;;48.28;23.20;;;;;;;26.31;18.94;102540.22;5052196;28;20464;-63
2022/03/25 10:38:46;;;;;;;57.13;25.73;;;;;;;26.34;19.54;102542.53;5068343;28;20041;-63
2022/03/25 10:41:16;;;;;;;52.72;23.45;;;;;;;24.97;20.22;102531.38;5052790;28;20056;-62
2022/03/25 10:44:00;;;;;;;46.13;24.00;;;;;;;24.65;20.98;102535.69;5052858;28;20033;-63
2022/03/25 10:46:39;;;;;;;56.45;24.88;;;;;;;23.60;22.50;102538.50;5052717;28;20512;-62
2022/03/25 10:49:11;;;;;;;53.17;24.23;;;;;;;23.82;22.50;102542.00;5051654;28;20056;-62
2022/03/25 10:51:40;;;;;;;58.20;24.98;;;;;;;23.63;22.84;102529.13;5052974;28;20053;-62
2022/03/25 10:54:10;;;;;;;61.40;26.45;;;;;;;23.78;22.88;102538.00;5083655;28;20041;-63
2022/03/25 10:59:26;;;;;;;48.00;24.10;;;;;;;23.54;22.64;102532.00;5130798;27;20866;-63
2022/03/25 11:01:57;;;;;;;51.63;23.75;;;;;;;23.03;23.44;102534.00;5127545;28;20104;-63
2022/03/25 11:04:25;;;;;;;48.05;25.15;;;;;;;21.93;24.08;102533.13;5130734;27;20046;-63
2022/03/25 11:06:52;;;;;;;47.13;24.27;;;;;;;22.91;24.18;102525.59;5110117;27;20055;-63
2022/03/25 11:09:20;;;;;;;52.45;25.95;;;;;;;23.28;23.74;102529.06;5118739;28;20039;-63
2022/03/25 11:11:48;;;;;;;51.47;24.83;;;;;;;23.14;23.21;102528.09;5129978;27;20070;-63
2022/03/25 11:14:16;;;;;;;51.45;26.55;;;;;;;22.85;23.95;102521.78;5129059;27;20095;-63
2022/03/25 11:16:47;;;;;;;54.40;25.27;;;;;;;23.38;23.02;102533.13;5093294;28;20092;-63
2022/03/25 11:19:15;;;;;;;51.33;25.37;;;;;;;23.67;22.69;102522.28;5111502;27;20522;-64
2022/03/25 11:21:44;;;;;;;47.88;24.42;;;;;;;24.19;22.37;102523.63;5124869;27;20035;-63
2022/03/25 11:24:19;;;;;;;50.90;22.77;;;;;;;24.63;21.62;102524.22;5137076;27;20430;-63